Verdon, Minnesota
Current Conditions -  °F | °C
As of 11:54 PM on Thursday 30 Oct 2014 (Local Time) from KAIT Reporting Station
Broken Clouds Broken Clouds  
Wind Chill: 22°   Ceiling: 3900
Heat Index: 30°   Visibility: 10mi
Dew Point: 19°   Wind: 9mph
Humidity: 64%   Direction: 340°NNW
Pressure: 30.4"   Gusts: 18mph
Location:  46.7281°N, 93.6101°W
Report Text: KAIT 310454Z AUTO 34008G16KT 10SM BKN039 M01/M07 A3040 RMK AO2
Loading
Personal Weather Stations






























Interactive Weather Map New forecast layout! Learn more

10-Day Weather Forecast

Advertisements
Track Severe Weather on mobile